SXS8HL EGCC-LTBJ
Flight info
| Callsign | SXS8HL |
|---|---|
| Flight time | N/A |
| Altitude | 35000 |
| Route | SONEX UL975 DESIG L603 DOLAS DCT NAVPI DCT TULIP DCT NOLRU DCT DOJOH DCT DODEN DCT NEGIX DCT DINKU DCT BESNI DCT LATLO DCT OBEDI DCT CEPRA/N0449F370 DCT ZAG DCT GUBOK DCT SOSEK DCT NISVA DCT RODIP UN131 DUGLA DCT OVZOK |
| Aircraft | A320/M-SDE3FGHIRWY/LB1 |
Departure
| Time | 2026-05-04 17:07 |
|---|---|
| Airport | Manchester Airport (EGCC) |
Arrival
| Time | N/A |
|---|---|
| Airport | Adnan Menderes International Airport (LTBJ) |
| Time | Latitude | Longitude | Altitude | Speed | Heading |
|---|---|---|---|---|---|
| 2026-05-04 16:24 | 53.36090 | -2.26796 | 251 ft | 0 kts | 315° |
| 2026-05-04 16:54 | 53.36086 | -2.26789 | 250 ft | 2 kts | 315° |
| 2026-05-04 16:55 | 53.36057 | -2.26689 | 251 ft | 3 kts | 251° |
| 2026-05-04 16:55 | 53.36059 | -2.26680 | 251 ft | 0 kts | 239° |
| 2026-05-04 17:00 | 53.36048 | -2.26705 | 251 ft | 5 kts | 235° |
| 2026-05-04 17:00 | 53.35935 | -2.26712 | 250 ft | 1 kts | 169° |
| 2026-05-04 17:02 | 53.35928 | -2.26710 | 250 ft | 2 kts | 169° |
| 2026-05-04 17:02 | 53.35875 | -2.26695 | 250 ft | 6 kts | 170° |
| 2026-05-04 17:03 | 53.35833 | -2.26684 | 251 ft | 7 kts | 171° |
| 2026-05-04 17:03 | 53.35772 | -2.26668 | 250 ft | 10 kts | 170° |
| 2026-05-04 17:03 | 53.35584 | -2.26636 | 247 ft | 17 kts | 199° |
| 2026-05-04 17:04 | 53.35418 | -2.26942 | 242 ft | 17 kts | 230° |
| 2026-05-04 17:04 | 53.35246 | -2.27218 | 239 ft | 17 kts | 194° |
| 2026-05-04 17:05 | 53.35014 | -2.27320 | 237 ft | 15 kts | 221° |
| 2026-05-04 17:05 | 53.34697 | -2.27971 | 230 ft | 87 kts | 231° |
| 2026-05-04 17:06 | 53.33515 | -2.30396 | 360 ft | 165 kts | 230° |
| 2026-05-04 17:06 | 53.32758 | -2.31961 | 634 ft | 188 kts | 231° |
| 2026-05-04 17:07 | 53.31634 | -2.36355 | 1511 ft | 233 kts | 279° |
| 2026-05-04 17:07 | 53.31954 | -2.38105 | 1724 ft | 245 kts | 303° |
| 2026-05-04 17:07 | 53.33749 | -2.40435 | 2569 ft | 252 kts | 343° |
| 2026-05-04 17:07 | 53.35432 | -2.41355 | 3420 ft | 256 kts | 344° |
| 2026-05-04 17:08 | 53.37144 | -2.42259 | 4326 ft | 259 kts | 343° |
| 2026-05-04 17:08 | 53.40639 | -2.44093 | 4972 ft | 264 kts | 343° |
| 2026-05-04 17:08 | 53.42386 | -2.45022 | 5058 ft | 265 kts | 343° |
| 2026-05-04 17:09 | 53.44199 | -2.45544 | 5799 ft | 267 kts | 1° |
| 2026-05-04 17:09 | 53.45991 | -2.44915 | 6602 ft | 271 kts | 25° |
| 2026-05-04 17:09 | 53.47477 | -2.42971 | 7330 ft | 276 kts | 52° |
| 2026-05-04 17:10 | 53.48427 | -2.36744 | 8771 ft | 286 kts | 89° |
| 2026-05-04 17:10 | 53.48537 | -2.26495 | 10036 ft | 296 kts | 82° |
| 2026-05-04 17:11 | 53.48799 | -2.23069 | 10048 ft | 296 kts | 90° |
| 2026-05-04 17:11 | 53.48383 | -2.19720 | 10059 ft | 298 kts | 115° |
| 2026-05-04 17:11 | 53.46242 | -2.13137 | 10324 ft | 344 kts | 120° |
| 2026-05-04 17:12 | 53.45015 | -2.09543 | 10454 ft | 365 kts | 120° |
| 2026-05-04 17:12 | 53.42428 | -2.01976 | 11415 ft | 379 kts | 120° |
| 2026-05-04 17:13 | 53.38456 | -1.90299 | 13280 ft | 389 kts | 120° |
| 2026-05-04 17:14 | 53.34411 | -1.78330 | 14908 ft | 398 kts | 120° |
| 2026-05-04 17:14 | 53.33079 | -1.74347 | 15030 ft | 398 kts | 120° |
| 2026-05-04 17:14 | 53.30805 | -1.65907 | 15225 ft | 402 kts | 111° |
| 2026-05-04 17:15 | 53.29860 | -1.61438 | 15855 ft | 403 kts | 110° |
| 2026-05-04 17:15 | 53.28008 | -1.52574 | 16987 ft | 409 kts | 110° |
| 2026-05-04 17:16 | 53.26201 | -1.43476 | 18104 ft | 416 kts | 107° |
| 2026-05-04 17:16 | 53.24062 | -1.29248 | 19575 ft | 425 kts | 105° |
| 2026-05-04 17:17 | 53.23375 | -1.24432 | 20057 ft | 427 kts | 105° |
| 2026-05-04 17:17 | 53.21247 | -1.09912 | 21381 ft | 434 kts | 106° |
| 2026-05-04 17:18 | 53.20511 | -1.05040 | 21775 ft | 436 kts | 106° |
| 2026-05-04 17:18 | 53.19016 | -0.95171 | 22547 ft | 441 kts | 106° |
| 2026-05-04 17:19 | 53.17508 | -0.85214 | 23276 ft | 445 kts | 106° |
| 2026-05-04 17:19 | 53.15974 | -0.75142 | 23907 ft | 449 kts | 106° |
| 2026-05-04 17:20 | 53.14412 | -0.65011 | 24487 ft | 453 kts | 106° |
| 2026-05-04 17:20 | 53.12831 | -0.54812 | 25128 ft | 455 kts | 107° |
| 2026-05-04 17:20 | 53.12041 | -0.49715 | 25561 ft | 454 kts | 107° |
| 2026-05-04 17:21 | 53.10465 | -0.39628 | 26408 ft | 452 kts | 107° |
| 2026-05-04 17:21 | 53.08880 | -0.29522 | 27265 ft | 451 kts | 107° |
| 2026-05-04 17:22 | 53.08084 | -0.24482 | 27689 ft | 450 kts | 107° |
| 2026-05-04 17:22 | 53.07283 | -0.19445 | 28138 ft | 449 kts | 107° |
| 2026-05-04 17:23 | 53.04887 | -0.04425 | 29467 ft | 447 kts | 107° |
| 2026-05-04 17:23 | 53.04093 | 0.00565 | 29907 ft | 446 kts | 108° |
| 2026-05-04 17:23 | 53.02495 | 0.10518 | 30692 ft | 445 kts | 108° |
| 2026-05-04 17:24 | 53.01696 | 0.15474 | 31060 ft | 445 kts | 108° |
| 2026-05-04 17:24 | 52.99284 | 0.30316 | 32195 ft | 443 kts | 108° |
| 2026-05-04 17:25 | 52.98474 | 0.35249 | 32573 ft | 443 kts | 108° |
| 2026-05-04 17:25 | 52.96856 | 0.45103 | 33342 ft | 442 kts | 108° |
| 2026-05-04 17:26 | 52.95240 | 0.54917 | 34087 ft | 440 kts | 108° |
| 2026-05-04 17:26 | 52.92807 | 0.69524 | 34911 ft | 440 kts | 108° |
| 2026-05-04 17:27 | 52.91153 | 0.79372 | 35050 ft | 448 kts | 108° |
| 2026-05-04 17:27 | 52.89450 | 0.89446 | 35047 ft | 459 kts | 108° |
| 2026-05-04 17:28 | 52.87724 | 0.99656 | 35047 ft | 461 kts | 108° |
| 2026-05-04 17:29 | 52.82478 | 1.30280 | 35055 ft | 462 kts | 109° |
| 2026-05-04 17:31 | 52.78028 | 1.55808 | 35049 ft | 462 kts | 109° |
| 2026-05-04 17:32 | 52.73539 | 1.81256 | 35056 ft | 463 kts | 109° |
| 2026-05-04 17:33 | 52.69877 | 2.01632 | 35035 ft | 463 kts | 110° |
| 2026-05-04 17:34 | 52.66194 | 2.22003 | 35040 ft | 464 kts | 110° |
| 2026-05-04 17:35 | 52.61542 | 2.47343 | 35029 ft | 464 kts | 110° |
| 2026-05-04 17:36 | 52.59670 | 2.57496 | 35025 ft | 464 kts | 110° |
| 2026-05-04 17:36 | 52.57787 | 2.67648 | 35032 ft | 464 kts | 110° |
| 2026-05-04 17:37 | 52.55882 | 2.77801 | 35030 ft | 464 kts | 110° |
| 2026-05-04 17:37 | 52.53985 | 2.87937 | 35026 ft | 465 kts | 110° |
| 2026-05-04 17:38 | 52.52221 | 2.98151 | 35023 ft | 465 kts | 109° |
| 2026-05-04 17:38 | 52.50503 | 3.08399 | 35024 ft | 467 kts | 109° |
| 2026-05-04 17:39 | 52.47812 | 3.23938 | 35028 ft | 476 kts | 109° |
| 2026-05-04 17:39 | 52.45960 | 3.34371 | 35029 ft | 476 kts | 110° |
| 2026-05-04 17:40 | 52.44108 | 3.44804 | 35028 ft | 476 kts | 110° |
| 2026-05-04 17:40 | 52.42256 | 3.55236 | 35022 ft | 476 kts | 110° |
| 2026-05-04 17:41 | 52.40395 | 3.65645 | 35017 ft | 477 kts | 110° |
| 2026-05-04 17:41 | 52.38532 | 3.76010 | 35015 ft | 477 kts | 110° |
| 2026-05-04 17:42 | 52.36463 | 3.86303 | 35012 ft | 472 kts | 118° |
| 2026-05-04 17:42 | 52.33292 | 3.95635 | 35011 ft | 469 kts | 124° |
| 2026-05-04 17:43 | 52.30022 | 4.04874 | 35014 ft | 469 kts | 124° |
| 2026-05-04 17:43 | 52.26762 | 4.14096 | 35018 ft | 469 kts | 124° |
| 2026-05-04 17:44 | 52.23509 | 4.23257 | 35016 ft | 468 kts | 124° |
| 2026-05-04 17:44 | 52.20231 | 4.32441 | 35001 ft | 468 kts | 124° |
| 2026-05-04 17:45 | 52.16944 | 4.41639 | 35002 ft | 468 kts | 124° |
| 2026-05-04 17:45 | 52.13656 | 4.50783 | 34997 ft | 467 kts | 125° |
| 2026-05-04 17:46 | 52.10358 | 4.59916 | 35001 ft | 467 kts | 125° |
| 2026-05-04 17:46 | 52.07066 | 4.69016 | 35002 ft | 467 kts | 125° |
| 2026-05-04 17:47 | 52.03791 | 4.78028 | 34999 ft | 466 kts | 125° |
| 2026-05-04 17:47 | 52.00489 | 4.87079 | 34999 ft | 465 kts | 125° |
| 2026-05-04 17:48 | 51.97193 | 4.96102 | 34999 ft | 464 kts | 125° |
| 2026-05-04 17:48 | 51.93886 | 5.05086 | 34997 ft | 464 kts | 126° |
| 2026-05-04 17:49 | 51.91131 | 5.12548 | 34925 ft | 464 kts | 125° |
| 2026-05-04 17:49 | 51.87288 | 5.22969 | 34973 ft | 461 kts | 126° |
| 2026-05-04 17:50 | 51.84539 | 5.30385 | 35029 ft | 461 kts | 126° |
| 2026-05-04 17:50 | 51.82909 | 5.34779 | 35447 ft | 456 kts | 125° |
| 2026-05-04 17:50 | 51.81263 | 5.39196 | 35572 ft | 458 kts | 125° |
| 2026-05-04 17:51 | 51.79615 | 5.43607 | 35686 ft | 460 kts | 125° |
| 2026-05-04 17:51 | 51.77960 | 5.48034 | 35889 ft | 458 kts | 125° |
| 2026-05-04 17:51 | 51.76315 | 5.52430 | 36122 ft | 458 kts | 125° |
| 2026-05-04 17:51 | 51.74665 | 5.56829 | 36301 ft | 458 kts | 125° |
| 2026-05-04 17:52 | 51.73010 | 5.61231 | 36474 ft | 459 kts | 125° |
| 2026-05-04 17:52 | 51.71354 | 5.65629 | 36642 ft | 459 kts | 125° |
| 2026-05-04 17:52 | 51.69710 | 5.69977 | 36805 ft | 459 kts | 125° |
| 2026-05-04 17:52 | 51.68043 | 5.74378 | 36971 ft | 460 kts | 125° |
| 2026-05-04 17:53 | 51.66375 | 5.78775 | 37116 ft | 460 kts | 125° |
| 2026-05-04 17:53 | 51.64705 | 5.83184 | 37248 ft | 461 kts | 125° |
| 2026-05-04 17:53 | 51.63034 | 5.87594 | 37388 ft | 462 kts | 125° |
| 2026-05-04 17:53 | 51.61356 | 5.92014 | 37525 ft | 463 kts | 125° |
| 2026-05-04 17:54 | 51.59674 | 5.96429 | 37654 ft | 463 kts | 125° |
| 2026-05-04 17:54 | 51.57986 | 6.00851 | 37789 ft | 463 kts | 125° |
| 2026-05-04 17:54 | 51.56307 | 6.05246 | 37949 ft | 463 kts | 125° |
| 2026-05-04 17:54 | 51.54607 | 6.09686 | 37982 ft | 466 kts | 125° |
| 2026-05-04 17:55 | 51.51181 | 6.18599 | 37974 ft | 471 kts | 125° |
| 2026-05-04 17:55 | 51.47645 | 6.27494 | 37979 ft | 473 kts | 127° |
| 2026-05-04 17:56 | 51.43926 | 6.36216 | 37986 ft | 473 kts | 128° |
| 2026-05-04 17:56 | 51.40164 | 6.44886 | 37984 ft | 474 kts | 128° |
| 2026-05-04 17:57 | 51.36440 | 6.53596 | 37987 ft | 475 kts | 128° |
| 2026-05-04 17:57 | 51.32743 | 6.62281 | 37988 ft | 475 kts | 128° |
| 2026-05-04 17:58 | 51.29010 | 6.71023 | 37992 ft | 476 kts | 128° |
| 2026-05-04 17:58 | 51.25268 | 6.79730 | 37997 ft | 476 kts | 128° |
| 2026-05-04 17:59 | 51.21506 | 6.88433 | 37996 ft | 476 kts | 128° |
| 2026-05-04 18:00 | 51.15852 | 7.01470 | 38012 ft | 476 kts | 128° |
| 2026-05-04 18:00 | 51.12067 | 7.10110 | 38029 ft | 475 kts | 130° |
| 2026-05-04 18:01 | 51.08041 | 7.18316 | 38025 ft | 473 kts | 133° |
| 2026-05-04 18:01 | 51.03813 | 7.26353 | 38026 ft | 472 kts | 134° |
| 2026-05-04 18:02 | 50.97554 | 7.38454 | 38027 ft | 473 kts | 133° |
| 2026-05-04 18:02 | 50.93434 | 7.46584 | 38026 ft | 472 kts | 133° |
| 2026-05-04 18:03 | 50.89307 | 7.54686 | 38028 ft | 472 kts | 133° |
| 2026-05-04 18:03 | 50.85160 | 7.62760 | 38026 ft | 472 kts | 133° |
| 2026-05-04 18:04 | 50.81035 | 7.70757 | 38029 ft | 472 kts | 133° |
| 2026-05-04 18:05 | 50.74811 | 7.82797 | 38015 ft | 471 kts | 133° |
| 2026-05-04 18:05 | 50.70645 | 7.90817 | 38017 ft | 471 kts | 134° |
| 2026-05-04 18:06 | 50.64431 | 8.02719 | 38023 ft | 470 kts | 134° |
| 2026-05-04 18:06 | 50.60274 | 8.10680 | 38021 ft | 470 kts | 134° |
| 2026-05-04 18:07 | 50.56113 | 8.18622 | 38019 ft | 469 kts | 134° |
| 2026-05-04 18:07 | 50.51957 | 8.26532 | 38030 ft | 469 kts | 134° |
| 2026-05-04 18:08 | 50.47781 | 8.34436 | 38009 ft | 469 kts | 134° |
| 2026-05-04 18:08 | 50.43602 | 8.42312 | 38003 ft | 469 kts | 134° |
| 2026-05-04 18:09 | 50.35174 | 8.57883 | 38001 ft | 469 kts | 136° |
| 2026-05-04 18:10 | 50.30707 | 8.65324 | 38000 ft | 468 kts | 138° |
| 2026-05-04 18:10 | 50.26198 | 8.72662 | 38000 ft | 468 kts | 138° |
| 2026-05-04 18:11 | 50.21722 | 8.80048 | 38004 ft | 468 kts | 137° |
| 2026-05-04 18:11 | 50.17305 | 8.87422 | 38003 ft | 468 kts | 137° |
| 2026-05-04 18:12 | 50.12841 | 8.94846 | 38004 ft | 468 kts | 137° |
| 2026-05-04 18:12 | 50.08373 | 9.02235 | 38001 ft | 468 kts | 137° |
| 2026-05-04 18:13 | 50.03910 | 9.09591 | 38006 ft | 468 kts | 137° |
| 2026-05-04 18:14 | 49.97206 | 9.20573 | 38002 ft | 468 kts | 137° |
| 2026-05-04 18:14 | 49.92717 | 9.27916 | 38006 ft | 468 kts | 137° |
| 2026-05-04 18:15 | 49.83731 | 9.42549 | 38004 ft | 468 kts | 137° |
| 2026-05-04 18:16 | 49.79229 | 9.49830 | 37996 ft | 468 kts | 138° |
| 2026-05-04 18:16 | 49.74732 | 9.57102 | 37993 ft | 467 kts | 138° |
| 2026-05-04 18:17 | 49.68019 | 9.67925 | 37993 ft | 467 kts | 138° |
| 2026-05-04 18:18 | 49.61262 | 9.78759 | 37990 ft | 468 kts | 138° |
| 2026-05-04 18:18 | 49.56734 | 9.85982 | 37994 ft | 468 kts | 138° |
| 2026-05-04 18:19 | 49.49935 | 9.96808 | 37990 ft | 469 kts | 138° |
| 2026-05-04 18:19 | 49.45399 | 10.04016 | 37990 ft | 469 kts | 138° |
| 2026-05-04 18:20 | 49.40846 | 10.11212 | 37991 ft | 470 kts | 138° |
| 2026-05-04 18:20 | 49.36286 | 10.18409 | 38005 ft | 470 kts | 138° |
| 2026-05-04 18:21 | 49.31726 | 10.25584 | 37994 ft | 470 kts | 138° |
| 2026-05-04 18:21 | 49.27148 | 10.32763 | 37997 ft | 470 kts | 138° |
| 2026-05-04 18:22 | 49.22569 | 10.39914 | 38009 ft | 470 kts | 139° |
| 2026-05-04 18:22 | 49.17912 | 10.46924 | 38005 ft | 469 kts | 140° |
| 2026-05-04 18:23 | 49.13189 | 10.53829 | 38008 ft | 469 kts | 140° |
| 2026-05-04 18:23 | 49.08475 | 10.60738 | 38009 ft | 470 kts | 140° |
| 2026-05-04 18:24 | 49.03788 | 10.67678 | 38017 ft | 470 kts | 139° |
| 2026-05-04 18:24 | 48.99124 | 10.74576 | 38014 ft | 470 kts | 139° |
| 2026-05-04 18:25 | 48.94418 | 10.81487 | 38009 ft | 470 kts | 139° |
| 2026-05-04 18:25 | 48.89693 | 10.88393 | 37991 ft | 471 kts | 139° |
| 2026-05-04 18:26 | 48.84970 | 10.95280 | 37985 ft | 471 kts | 139° |
| 2026-05-04 18:26 | 48.80246 | 11.02164 | 37973 ft | 471 kts | 139° |
| 2026-05-04 18:27 | 48.75517 | 11.09035 | 37968 ft | 471 kts | 139° |
| 2026-05-04 18:27 | 48.70783 | 11.15890 | 37969 ft | 471 kts | 139° |
| 2026-05-04 18:28 | 48.66041 | 11.22742 | 37969 ft | 471 kts | 139° |
| 2026-05-04 18:28 | 48.61390 | 11.29731 | 37969 ft | 472 kts | 136° |
| 2026-05-04 18:29 | 48.56994 | 11.37143 | 37970 ft | 473 kts | 134° |
| 2026-05-04 18:29 | 48.52660 | 11.44613 | 37952 ft | 473 kts | 134° |
| 2026-05-04 18:30 | 48.46034 | 11.55650 | 37968 ft | 473 kts | 135° |
| 2026-05-04 18:31 | 48.41573 | 11.62941 | 37966 ft | 473 kts | 135° |
| 2026-05-04 18:31 | 48.37144 | 11.70189 | 37967 ft | 473 kts | 135° |
| 2026-05-04 18:32 | 48.32688 | 11.77497 | 37967 ft | 473 kts | 135° |
| 2026-05-04 18:32 | 48.28230 | 11.84793 | 37965 ft | 473 kts | 135° |
| 2026-05-04 18:33 | 48.23792 | 11.92026 | 37963 ft | 469 kts | 135° |
| 2026-05-04 18:33 | 48.21620 | 11.95561 | 37944 ft | 454 kts | 135° |
| 2026-05-04 18:33 | 48.19504 | 11.99003 | 37942 ft | 440 kts | 136° |
| 2026-05-04 18:34 | 48.15410 | 12.05638 | 37944 ft | 434 kts | 136° |
| 2026-05-04 18:34 | 48.11255 | 12.12333 | 37940 ft | 445 kts | 136° |
| 2026-05-04 18:35 | 48.06989 | 12.19199 | 37933 ft | 455 kts | 136° |
| 2026-05-04 18:35 | 48.03379 | 12.25009 | 37933 ft | 461 kts | 135° |
| 2026-05-04 18:36 | 47.98985 | 12.32075 | 37928 ft | 468 kts | 135° |
| 2026-05-04 18:36 | 47.94529 | 12.39218 | 37926 ft | 472 kts | 135° |
| 2026-05-04 18:37 | 47.90022 | 12.46412 | 37927 ft | 476 kts | 135° |
| 2026-05-04 18:37 | 47.85470 | 12.53654 | 37925 ft | 480 kts | 135° |
| 2026-05-04 18:37 | 47.83190 | 12.57261 | 38189 ft | 476 kts | 136° |
| 2026-05-04 18:38 | 47.80915 | 12.60848 | 38306 ft | 476 kts | 135° |
| 2026-05-04 18:38 | 47.76487 | 12.67807 | 38413 ft | 477 kts | 135° |
| 2026-05-04 18:39 | 47.71908 | 12.74985 | 38511 ft | 479 kts | 135° |
| 2026-05-04 18:39 | 47.67315 | 12.82149 | 38566 ft | 479 kts | 136° |
| 2026-05-04 18:40 | 47.62707 | 12.89316 | 38639 ft | 480 kts | 135° |
| 2026-05-04 18:40 | 47.58121 | 12.96407 | 38693 ft | 475 kts | 136° |
| 2026-05-04 18:41 | 47.53609 | 13.03374 | 38694 ft | 462 kts | 136° |
| 2026-05-04 18:41 | 47.49209 | 13.10158 | 38699 ft | 453 kts | 136° |
| 2026-05-04 18:42 | 47.44858 | 13.16863 | 38497 ft | 451 kts | 136° |
| 2026-05-04 18:42 | 47.42692 | 13.20197 | 38363 ft | 449 kts | 136° |
| 2026-05-04 18:42 | 47.40522 | 13.23532 | 38304 ft | 453 kts | 136° |
| 2026-05-04 18:43 | 47.36511 | 13.30779 | 38312 ft | 464 kts | 116° |